sensor_id;sensor_type;location;lat;lon;timestamp;P1;durP1;ratioP1;P2;durP2;ratioP2
20649;SDS011;10484;48.736;9.332;2022-12-07T00:03:31;7.88;;;5.30;;
20649;SDS011;10484;48.736;9.332;2022-12-07T00:05:57;7.60;;;5.30;;
20649;SDS011;10484;48.736;9.332;2022-12-07T00:08:23;6.03;;;5.00;;
20649;SDS011;10484;48.736;9.332;2022-12-07T00:10:49;9.03;;;5.57;;
20649;SDS011;10484;48.736;9.332;2022-12-07T00:13:14;6.30;;;4.97;;
20649;SDS011;10484;48.736;9.332;2022-12-07T00:15:40;7.20;;;5.13;;
20649;SDS011;10484;48.736;9.332;2022-12-07T00:18:06;8.47;;;5.07;;
20649;SDS011;10484;48.736;9.332;2022-12-07T00:20:32;10.70;;;5.80;;
20649;SDS011;10484;48.736;9.332;2022-12-07T00:22:58;6.47;;;4.60;;
20649;SDS011;10484;48.736;9.332;2022-12-07T00:25:24;12.27;;;7.03;;
20649;SDS011;10484;48.736;9.332;2022-12-07T00:27:49;9.40;;;5.97;;
20649;SDS011;10484;48.736;9.332;2022-12-07T00:30:15;8.27;;;5.63;;
20649;SDS011;10484;48.736;9.332;2022-12-07T00:32:41;8.33;;;5.77;;
20649;SDS011;10484;48.736;9.332;2022-12-07T00:35:06;7.23;;;4.60;;
20649;SDS011;10484;48.736;9.332;2022-12-07T00:37:32;7.22;;;5.47;;
20649;SDS011;10484;48.736;9.332;2022-12-07T00:39:58;8.80;;;5.87;;
20649;SDS011;10484;48.736;9.332;2022-12-07T00:42:24;7.40;;;5.30;;
20649;SDS011;10484;48.736;9.332;2022-12-07T00:44:49;7.67;;;5.53;;
20649;SDS011;10484;48.736;9.332;2022-12-07T00:47:15;7.97;;;5.00;;
20649;SDS011;10484;48.736;9.332;2022-12-07T00:49:41;8.60;;;5.30;;
20649;SDS011;10484;48.736;9.332;2022-12-07T00:52:06;8.60;;;6.10;;
20649;SDS011;10484;48.736;9.332;2022-12-07T00:54:32;11.07;;;6.53;;
20649;SDS011;10484;48.736;9.332;2022-12-07T00:56:58;9.47;;;5.90;;
20649;SDS011;10484;48.736;9.332;2022-12-07T00:59:24;12.00;;;6.65;;
20649;SDS011;10484;48.736;9.332;2022-12-07T01:01:49;8.63;;;6.53;;
20649;SDS011;10484;48.736;9.332;2022-12-07T01:04:15;6.53;;;4.80;;
20649;SDS011;10484;48.736;9.332;2022-12-07T01:06:40;6.30;;;5.50;;
20649;SDS011;10484;48.736;9.332;2022-12-07T01:09:06;7.50;;;5.30;;
20649;SDS011;10484;48.736;9.332;2022-12-07T01:11:32;11.50;;;5.73;;
20649;SDS011;10484;48.736;9.332;2022-12-07T01:13:58;6.70;;;5.28;;
20649;SDS011;10484;48.736;9.332;2022-12-07T01:16:25;6.75;;;4.60;;
20649;SDS011;10484;48.736;9.332;2022-12-07T01:18:54;7.60;;;5.40;;
20649;SDS011;10484;48.736;9.332;2022-12-07T01:21:22;9.30;;;6.45;;
20649;SDS011;10484;48.736;9.332;2022-12-07T01:23:50;7.20;;;4.80;;
20649;SDS011;10484;48.736;9.332;2022-12-07T01:26:17;8.98;;;5.45;;
20649;SDS011;10484;48.736;9.332;2022-12-07T01:28:45;10.85;;;6.72;;
20649;SDS011;10484;48.736;9.332;2022-12-07T01:31:14;12.32;;;5.75;;
20649;SDS011;10484;48.736;9.332;2022-12-07T01:33:49;7.35;;;6.38;;
20649;SDS011;10484;48.736;9.332;2022-12-07T01:36:24;7.35;;;5.40;;
20649;SDS011;10484;48.736;9.332;2022-12-07T01:38:51;8.88;;;5.90;;
20649;SDS011;10484;48.736;9.332;2022-12-07T01:41:21;9.63;;;5.75;;
20649;SDS011;10484;48.736;9.332;2022-12-07T01:46:50;8.57;;;5.30;;
20649;SDS011;10484;48.736;9.332;2022-12-07T01:54:54;10.88;;;6.35;;
20649;SDS011;10484;48.736;9.332;2022-12-07T01:57:22;7.97;;;5.75;;
20649;SDS011;10484;48.736;9.332;2022-12-07T01:59:48;9.13;;;5.40;;
20649;SDS011;10484;48.736;9.332;2022-12-07T02:02:20;11.90;;;5.68;;
20649;SDS011;10484;48.736;9.332;2022-12-07T02:04:52;10.07;;;6.50;;
20649;SDS011;10484;48.736;9.332;2022-12-07T02:07:20;9.68;;;5.60;;
20649;SDS011;10484;48.736;9.332;2022-12-07T02:09:48;9.57;;;6.18;;
20649;SDS011;10484;48.736;9.332;2022-12-07T02:12:13;10.33;;;6.17;;
20649;SDS011;10484;48.736;9.332;2022-12-07T02:14:39;10.43;;;5.77;;
20649;SDS011;10484;48.736;9.332;2022-12-07T02:28:29;8.30;;;5.55;;
20649;SDS011;10484;48.736;9.332;2022-12-07T02:31:01;8.40;;;5.20;;
20649;SDS011;10484;48.736;9.332;2022-12-07T02:33:35;9.98;;;5.97;;
20649;SDS011;10484;48.736;9.332;2022-12-07T02:41:26;5.97;;;4.45;;
20649;SDS011;10484;48.736;9.332;2022-12-07T02:44:00;8.35;;;5.00;;
20649;SDS011;10484;48.736;9.332;2022-12-07T02:46:31;9.02;;;5.63;;
20649;SDS011;10484;48.736;9.332;2022-12-07T02:49:02;10.02;;;5.30;;
20649;SDS011;10484;48.736;9.332;2022-12-07T02:51:29;7.72;;;5.30;;
20649;SDS011;10484;48.736;9.332;2022-12-07T02:53:56;8.63;;;4.88;;
20649;SDS011;10484;48.736;9.332;2022-12-07T02:56:34;8.73;;;5.33;;
20649;SDS011;10484;48.736;9.332;2022-12-07T02:59:24;9.27;;;5.15;;
20649;SDS011;10484;48.736;9.332;2022-12-07T03:05:12;9.73;;;5.65;;
20649;SDS011;10484;48.736;9.332;2022-12-07T03:10:24;11.27;;;6.05;;
20649;SDS011;10484;48.736;9.332;2022-12-07T03:15:35;10.67;;;5.97;;
20649;SDS011;10484;48.736;9.332;2022-12-07T03:18:03;13.02;;;6.65;;
20649;SDS011;10484;48.736;9.332;2022-12-07T03:20:32;12.52;;;5.78;;
20649;SDS011;10484;48.736;9.332;2022-12-07T03:23:00;10.32;;;6.10;;
20649;SDS011;10484;48.736;9.332;2022-12-07T03:25:30;10.25;;;5.90;;
20649;SDS011;10484;48.736;9.332;2022-12-07T03:28:00;9.65;;;5.68;;
20649;SDS011;10484;48.736;9.332;2022-12-07T03:30:34;9.32;;;6.03;;
20649;SDS011;10484;48.736;9.332;2022-12-07T03:33:13;7.90;;;5.07;;
20649;SDS011;10484;48.736;9.332;2022-12-07T03:36:01;7.80;;;5.35;;
20649;SDS011;10484;48.736;9.332;2022-12-07T03:39:03;9.27;;;5.50;;
20649;SDS011;10484;48.736;9.332;2022-12-07T03:41:53;11.45;;;5.50;;
20649;SDS011;10484;48.736;9.332;2022-12-07T03:44:19;9.90;;;5.38;;
20649;SDS011;10484;48.736;9.332;2022-12-07T03:46:58;8.95;;;5.13;;
20649;SDS011;10484;48.736;9.332;2022-12-07T03:52:08;9.90;;;5.35;;
20649;SDS011;10484;48.736;9.332;2022-12-07T03:55:01;9.70;;;4.97;;
20649;SDS011;10484;48.736;9.332;2022-12-07T03:57:55;6.80;;;5.03;;
20649;SDS011;10484;48.736;9.332;2022-12-07T04:00:25;9.10;;;5.15;;
20649;SDS011;10484;48.736;9.332;2022-12-07T04:02:51;7.15;;;4.90;;
20649;SDS011;10484;48.736;9.332;2022-12-07T04:05:18;10.25;;;6.05;;
20649;SDS011;10484;48.736;9.332;2022-12-07T04:07:44;8.97;;;5.33;;
20649;SDS011;10484;48.736;9.332;2022-12-07T04:10:10;8.57;;;4.67;;
20649;SDS011;10484;48.736;9.332;2022-12-07T04:12:36;6.47;;;4.50;;
20649;SDS011;10484;48.736;9.332;2022-12-07T04:15:02;8.47;;;4.70;;
20649;SDS011;10484;48.736;9.332;2022-12-07T04:17:28;7.05;;;4.85;;
20649;SDS011;10484;48.736;9.332;2022-12-07T04:19:54;9.83;;;5.10;;
20649;SDS011;10484;48.736;9.332;2022-12-07T04:22:19;7.70;;;4.70;;
20649;SDS011;10484;48.736;9.332;2022-12-07T04:24:45;8.53;;;4.10;;
20649;SDS011;10484;48.736;9.332;2022-12-07T04:27:10;7.60;;;4.93;;
20649;SDS011;10484;48.736;9.332;2022-12-07T04:29:36;9.57;;;5.73;;
20649;SDS011;10484;48.736;9.332;2022-12-07T04:32:02;8.07;;;4.80;;
20649;SDS011;10484;48.736;9.332;2022-12-07T04:34:27;7.90;;;4.60;;
20649;SDS011;10484;48.736;9.332;2022-12-07T04:36:53;8.37;;;4.63;;
20649;SDS011;10484;48.736;9.332;2022-12-07T04:39:23;9.87;;;5.73;;
20649;SDS011;10484;48.736;9.332;2022-12-07T04:41:53;6.65;;;4.53;;
20649;SDS011;10484;48.736;9.332;2022-12-07T04:44:20;7.05;;;4.50;;
20649;SDS011;10484;48.736;9.332;2022-12-07T04:46:46;7.70;;;4.78;;
20649;SDS011;10484;48.736;9.332;2022-12-07T04:49:13;9.55;;;5.10;;
20649;SDS011;10484;48.736;9.332;2022-12-07T04:51:39;7.22;;;4.70;;
20649;SDS011;10484;48.736;9.332;2022-12-07T04:54:05;6.30;;;3.93;;
20649;SDS011;10484;48.736;9.332;2022-12-07T04:56:31;8.30;;;4.77;;
20649;SDS011;10484;48.736;9.332;2022-12-07T04:58:57;8.80;;;4.60;;
20649;SDS011;10484;48.736;9.332;2022-12-07T05:01:23;8.43;;;5.90;;
20649;SDS011;10484;48.736;9.332;2022-12-07T05:03:49;9.65;;;6.00;;
20649;SDS011;10484;48.736;9.332;2022-12-07T05:06:15;10.60;;;5.35;;
20649;SDS011;10484;48.736;9.332;2022-12-07T05:08:41;11.45;;;5.93;;
20649;SDS011;10484;48.736;9.332;2022-12-07T05:11:08;9.85;;;5.13;;
20649;SDS011;10484;48.736;9.332;2022-12-07T05:13:54;9.30;;;5.70;;
20649;SDS011;10484;48.736;9.332;2022-12-07T05:16:20;9.13;;;5.63;;
20649;SDS011;10484;48.736;9.332;2022-12-07T05:18:46;12.00;;;6.20;;
20649;SDS011;10484;48.736;9.332;2022-12-07T05:21:11;14.17;;;7.80;;
20649;SDS011;10484;48.736;9.332;2022-12-07T05:23:37;11.50;;;6.07;;
20649;SDS011;10484;48.736;9.332;2022-12-07T05:26:02;14.90;;;8.13;;
20649;SDS011;10484;48.736;9.332;2022-12-07T05:28:28;13.17;;;7.67;;
20649;SDS011;10484;48.736;9.332;2022-12-07T05:30:54;13.10;;;6.57;;
20649;SDS011;10484;48.736;9.332;2022-12-07T05:33:19;10.77;;;5.67;;
20649;SDS011;10484;48.736;9.332;2022-12-07T05:35:45;10.40;;;6.80;;
20649;SDS011;10484;48.736;9.332;2022-12-07T05:38:10;12.03;;;7.90;;
20649;SDS011;10484;48.736;9.332;2022-12-07T05:40:36;10.70;;;6.27;;
20649;SDS011;10484;48.736;9.332;2022-12-07T05:43:02;10.65;;;6.68;;
20649;SDS011;10484;48.736;9.332;2022-12-07T05:45:28;11.53;;;6.47;;
20649;SDS011;10484;48.736;9.332;2022-12-07T05:47:53;11.77;;;6.00;;
20649;SDS011;10484;48.736;9.332;2022-12-07T05:50:19;9.93;;;6.20;;
20649;SDS011;10484;48.736;9.332;2022-12-07T05:52:45;11.07;;;6.40;;
20649;SDS011;10484;48.736;9.332;2022-12-07T05:55:10;10.60;;;6.27;;
20649;SDS011;10484;48.736;9.332;2022-12-07T05:57:36;13.67;;;7.10;;
20649;SDS011;10484;48.736;9.332;2022-12-07T06:00:03;11.57;;;5.57;;
20649;SDS011;10484;48.736;9.332;2022-12-07T06:02:29;11.20;;;6.95;;
20649;SDS011;10484;48.736;9.332;2022-12-07T06:04:55;11.10;;;6.07;;
20649;SDS011;10484;48.736;9.332;2022-12-07T06:07:20;11.53;;;6.37;;
20649;SDS011;10484;48.736;9.332;2022-12-07T06:09:46;11.97;;;7.03;;
20649;SDS011;10484;48.736;9.332;2022-12-07T06:12:12;11.07;;;6.87;;
20649;SDS011;10484;48.736;9.332;2022-12-07T06:14:56;12.82;;;6.72;;
20649;SDS011;10484;48.736;9.332;2022-12-07T06:17:22;11.90;;;6.50;;
20649;SDS011;10484;48.736;9.332;2022-12-07T06:19:49;14.75;;;7.78;;
20649;SDS011;10484;48.736;9.332;2022-12-07T06:22:15;11.67;;;6.27;;
20649;SDS011;10484;48.736;9.332;2022-12-07T06:24:41;11.70;;;7.30;;
20649;SDS011;10484;48.736;9.332;2022-12-07T06:27:07;13.15;;;5.30;;
20649;SDS011;10484;48.736;9.332;2022-12-07T06:29:33;11.10;;;6.80;;
20649;SDS011;10484;48.736;9.332;2022-12-07T06:31:59;13.17;;;6.90;;
20649;SDS011;10484;48.736;9.332;2022-12-07T06:34:25;13.93;;;6.97;;
20649;SDS011;10484;48.736;9.332;2022-12-07T06:36:51;7.07;;;4.20;;
20649;SDS011;10484;48.736;9.332;2022-12-07T06:39:24;7.85;;;5.00;;
20649;SDS011;10484;48.736;9.332;2022-12-07T06:41:50;8.77;;;5.20;;
20649;SDS011;10484;48.736;9.332;2022-12-07T06:44:17;11.52;;;5.95;;
20649;SDS011;10484;48.736;9.332;2022-12-07T06:46:43;9.75;;;4.45;;
20649;SDS011;10484;48.736;9.332;2022-12-07T06:49:09;9.43;;;6.23;;
20649;SDS011;10484;48.736;9.332;2022-12-07T06:51:34;11.30;;;5.83;;
20649;SDS011;10484;48.736;9.332;2022-12-07T06:54:05;9.60;;;5.95;;
20649;SDS011;10484;48.736;9.332;2022-12-07T06:56:32;12.07;;;5.88;;
20649;SDS011;10484;48.736;9.332;2022-12-07T06:58:57;10.00;;;5.33;;
20649;SDS011;10484;48.736;9.332;2022-12-07T07:01:23;11.37;;;7.13;;
20649;SDS011;10484;48.736;9.332;2022-12-07T07:03:49;15.30;;;8.07;;
20649;SDS011;10484;48.736;9.332;2022-12-07T07:06:14;14.53;;;7.87;;
20649;SDS011;10484;48.736;9.332;2022-12-07T07:08:40;8.90;;;5.70;;
20649;SDS011;10484;48.736;9.332;2022-12-07T07:11:06;15.27;;;6.90;;
20649;SDS011;10484;48.736;9.332;2022-12-07T07:13:33;13.57;;;7.25;;
20649;SDS011;10484;48.736;9.332;2022-12-07T07:15:59;10.90;;;6.40;;
20649;SDS011;10484;48.736;9.332;2022-12-07T07:18:25;8.40;;;5.70;;
20649;SDS011;10484;48.736;9.332;2022-12-07T07:20:51;12.13;;;6.00;;
20649;SDS011;10484;48.736;9.332;2022-12-07T07:23:17;15.18;;;6.68;;
20649;SDS011;10484;48.736;9.332;2022-12-07T07:25:44;11.93;;;6.95;;
20649;SDS011;10484;48.736;9.332;2022-12-07T07:28:10;11.70;;;6.03;;
20649;SDS011;10484;48.736;9.332;2022-12-07T07:30:36;10.63;;;6.53;;
20649;SDS011;10484;48.736;9.332;2022-12-07T07:33:02;12.50;;;6.00;;
20649;SDS011;10484;48.736;9.332;2022-12-07T07:35:29;12.55;;;6.57;;
20649;SDS011;10484;48.736;9.332;2022-12-07T07:37:56;12.10;;;6.85;;
20649;SDS011;10484;48.736;9.332;2022-12-07T07:40:22;12.10;;;6.40;;
20649;SDS011;10484;48.736;9.332;2022-12-07T07:42:48;11.13;;;6.23;;
20649;SDS011;10484;48.736;9.332;2022-12-07T07:45:14;14.13;;;7.00;;
20649;SDS011;10484;48.736;9.332;2022-12-07T07:47:40;12.87;;;7.57;;
20649;SDS011;10484;48.736;9.332;2022-12-07T07:50:06;15.93;;;7.27;;
20649;SDS011;10484;48.736;9.332;2022-12-07T07:52:32;11.40;;;6.07;;
20649;SDS011;10484;48.736;9.332;2022-12-07T07:54:57;11.43;;;6.80;;
20649;SDS011;10484;48.736;9.332;2022-12-07T07:57:23;11.27;;;7.17;;
20649;SDS011;10484;48.736;9.332;2022-12-07T07:59:48;11.37;;;6.90;;
20649;SDS011;10484;48.736;9.332;2022-12-07T08:02:15;13.97;;;6.90;;
20649;SDS011;10484;48.736;9.332;2022-12-07T08:04:42;12.43;;;5.95;;
20649;SDS011;10484;48.736;9.332;2022-12-07T08:07:08;11.80;;;6.57;;
20649;SDS011;10484;48.736;9.332;2022-12-07T08:09:34;12.80;;;7.18;;
20649;SDS011;10484;48.736;9.332;2022-12-07T08:12:00;11.40;;;7.80;;
20649;SDS011;10484;48.736;9.332;2022-12-07T08:14:26;11.57;;;7.10;;
20649;SDS011;10484;48.736;9.332;2022-12-07T08:16:53;11.60;;;6.35;;
20649;SDS011;10484;48.736;9.332;2022-12-07T08:19:19;10.27;;;6.90;;
20649;SDS011;10484;48.736;9.332;2022-12-07T08:21:45;12.63;;;7.10;;
20649;SDS011;10484;48.736;9.332;2022-12-07T08:24:11;13.30;;;7.70;;
20649;SDS011;10484;48.736;9.332;2022-12-07T08:26:36;14.50;;;7.70;;
20649;SDS011;10484;48.736;9.332;2022-12-07T08:29:02;13.77;;;7.50;;
20649;SDS011;10484;48.736;9.332;2022-12-07T08:31:28;13.13;;;7.60;;
20649;SDS011;10484;48.736;9.332;2022-12-07T08:33:54;12.90;;;6.90;;
20649;SDS011;10484;48.736;9.332;2022-12-07T08:36:20;13.65;;;9.02;;
20649;SDS011;10484;48.736;9.332;2022-12-07T08:38:47;13.80;;;7.15;;
20649;SDS011;10484;48.736;9.332;2022-12-07T08:41:14;13.15;;;7.10;;
20649;SDS011;10484;48.736;9.332;2022-12-07T08:43:39;9.60;;;6.37;;
20649;SDS011;10484;48.736;9.332;2022-12-07T08:48:34;9.52;;;6.30;;
20649;SDS011;10484;48.736;9.332;2022-12-07T08:51:04;11.13;;;7.03;;
20649;SDS011;10484;48.736;9.332;2022-12-07T08:53:29;8.80;;;6.20;;
20649;SDS011;10484;48.736;9.332;2022-12-07T08:55:56;9.00;;;5.95;;
20649;SDS011;10484;48.736;9.332;2022-12-07T08:58:23;10.80;;;6.75;;
20649;SDS011;10484;48.736;9.332;2022-12-07T09:00:48;11.30;;;7.30;;
20649;SDS011;10484;48.736;9.332;2022-12-07T09:03:14;13.63;;;7.57;;
20649;SDS011;10484;48.736;9.332;2022-12-07T09:05:40;8.97;;;6.03;;
20649;SDS011;10484;48.736;9.332;2022-12-07T09:08:05;15.30;;;6.83;;
20649;SDS011;10484;48.736;9.332;2022-12-07T09:10:32;10.32;;;5.82;;
20649;SDS011;10484;48.736;9.332;2022-12-07T09:12:57;10.33;;;6.33;;
20649;SDS011;10484;48.736;9.332;2022-12-07T09:15:27;11.55;;;6.35;;
20649;SDS011;10484;48.736;9.332;2022-12-07T09:17:53;10.02;;;5.68;;
20649;SDS011;10484;48.736;9.332;2022-12-07T09:20:19;8.47;;;4.63;;
20649;SDS011;10484;48.736;9.332;2022-12-07T09:22:45;13.83;;;6.13;;
20649;SDS011;10484;48.736;9.332;2022-12-07T09:25:11;9.37;;;5.90;;
20649;SDS011;10484;48.736;9.332;2022-12-07T09:27:36;10.10;;;5.70;;
20649;SDS011;10484;48.736;9.332;2022-12-07T09:30:03;7.53;;;4.90;;
20649;SDS011;10484;48.736;9.332;2022-12-07T09:32:29;7.10;;;4.35;;
20649;SDS011;10484;48.736;9.332;2022-12-07T09:34:55;8.90;;;5.40;;
20649;SDS011;10484;48.736;9.332;2022-12-07T09:37:20;8.23;;;4.73;;
20649;SDS011;10484;48.736;9.332;2022-12-07T09:39:46;9.70;;;4.97;;
20649;SDS011;10484;48.736;9.332;2022-12-07T09:42:24;8.40;;;4.73;;
20649;SDS011;10484;48.736;9.332;2022-12-07T09:44:57;7.53;;;3.90;;
20649;SDS011;10484;48.736;9.332;2022-12-07T09:47:25;6.72;;;4.75;;
20649;SDS011;10484;48.736;9.332;2022-12-07T09:50:00;8.55;;;5.43;;
20649;SDS011;10484;48.736;9.332;2022-12-07T09:52:37;8.48;;;4.82;;
20649;SDS011;10484;48.736;9.332;2022-12-07T09:55:02;10.57;;;5.37;;
20649;SDS011;10484;48.736;9.332;2022-12-07T09:57:30;11.30;;;5.03;;
20649;SDS011;10484;48.736;9.332;2022-12-07T10:00:04;9.70;;;4.97;;
20649;SDS011;10484;48.736;9.332;2022-12-07T10:02:38;8.32;;;4.78;;
20649;SDS011;10484;48.736;9.332;2022-12-07T10:05:09;8.43;;;3.80;;
20649;SDS011;10484;48.736;9.332;2022-12-07T10:07:41;7.63;;;4.78;;
20649;SDS011;10484;48.736;9.332;2022-12-07T10:13:16;5.25;;;3.70;;
20649;SDS011;10484;48.736;9.332;2022-12-07T10:15:55;8.23;;;5.05;;
20649;SDS011;10484;48.736;9.332;2022-12-07T10:21:05;6.32;;;4.03;;
20649;SDS011;10484;48.736;9.332;2022-12-07T10:24:02;5.88;;;3.70;;
20649;SDS011;10484;48.736;9.332;2022-12-07T10:31:42;7.68;;;4.45;;
20649;SDS011;10484;48.736;9.332;2022-12-07T10:34:23;7.13;;;4.00;;
20649;SDS011;10484;48.736;9.332;2022-12-07T10:37:06;6.55;;;4.30;;
20649;SDS011;10484;48.736;9.332;2022-12-07T10:39:43;7.03;;;4.22;;
20649;SDS011;10484;48.736;9.332;2022-12-07T10:44:47;6.60;;;4.40;;
20649;SDS011;10484;48.736;9.332;2022-12-07T10:50:17;6.07;;;4.43;;
20649;SDS011;10484;48.736;9.332;2022-12-07T10:56:00;6.30;;;4.05;;
20649;SDS011;10484;48.736;9.332;2022-12-07T11:01:39;7.85;;;3.55;;
20649;SDS011;10484;48.736;9.332;2022-12-07T11:04:22;7.78;;;4.18;;
20649;SDS011;10484;48.736;9.332;2022-12-07T11:10:29;5.32;;;3.33;;
20649;SDS011;10484;48.736;9.332;2022-12-07T11:22:03;8.18;;;3.90;;
20649;SDS011;10484;48.736;9.332;2022-12-07T11:30:18;8.57;;;4.45;;
20649;SDS011;10484;48.736;9.332;2022-12-07T11:38:45;6.47;;;3.63;;
20649;SDS011;10484;48.736;9.332;2022-12-07T11:41:20;10.20;;;3.70;;
20649;SDS011;10484;48.736;9.332;2022-12-07T11:44:07;8.75;;;4.75;;
20649;SDS011;10484;48.736;9.332;2022-12-07T11:46:52;6.45;;;4.40;;
20649;SDS011;10484;48.736;9.332;2022-12-07T11:49:27;6.53;;;3.60;;
20649;SDS011;10484;48.736;9.332;2022-12-07T11:52:11;6.22;;;3.55;;
20649;SDS011;10484;48.736;9.332;2022-12-07T11:54:45;8.50;;;4.30;;
20649;SDS011;10484;48.736;9.332;2022-12-07T11:57:17;4.68;;;3.42;;
20649;SDS011;10484;48.736;9.332;2022-12-07T12:00:04;6.57;;;3.90;;
20649;SDS011;10484;48.736;9.332;2022-12-07T12:02:41;7.57;;;3.92;;
20649;SDS011;10484;48.736;9.332;2022-12-07T12:05:21;5.90;;;3.88;;
20649;SDS011;10484;48.736;9.332;2022-12-07T12:07:54;4.55;;;3.65;;
20649;SDS011;10484;48.736;9.332;2022-12-07T12:10:22;8.43;;;3.67;;
20649;SDS011;10484;48.736;9.332;2022-12-07T12:13:38;6.03;;;4.10;;
20649;SDS011;10484;48.736;9.332;2022-12-07T12:19:36;6.93;;;4.07;;
20649;SDS011;10484;48.736;9.332;2022-12-07T12:22:12;3.92;;;3.08;;
20649;SDS011;10484;48.736;9.332;2022-12-07T12:24:42;5.63;;;3.40;;
20649;SDS011;10484;48.736;9.332;2022-12-07T12:27:22;5.43;;;3.65;;
20649;SDS011;10484;48.736;9.332;2022-12-07T12:29:55;7.20;;;3.70;;
20649;SDS011;10484;48.736;9.332;2022-12-07T12:33:00;7.35;;;4.43;;
20649;SDS011;10484;48.736;9.332;2022-12-07T12:35:20;5.35;;;3.78;;
20649;SDS011;10484;48.736;9.332;2022-12-07T12:38:20;5.35;;;3.20;;
20649;SDS011;10484;48.736;9.332;2022-12-07T12:40:58;5.63;;;2.80;;
20649;SDS011;10484;48.736;9.332;2022-12-07T12:43:45;4.00;;;2.55;;
20649;SDS011;10484;48.736;9.332;2022-12-07T12:54:25;6.32;;;3.78;;
20649;SDS011;10484;48.736;9.332;2022-12-07T12:59:23;5.77;;;3.50;;
20649;SDS011;10484;48.736;9.332;2022-12-07T13:04:55;6.03;;;3.45;;
20649;SDS011;10484;48.736;9.332;2022-12-07T13:07:49;4.63;;;3.85;;
20649;SDS011;10484;48.736;9.332;2022-12-07T13:15:32;5.80;;;4.13;;
20649;SDS011;10484;48.736;9.332;2022-12-07T13:18:02;7.00;;;3.92;;
20649;SDS011;10484;48.736;9.332;2022-12-07T13:20:47;6.53;;;4.65;;
20649;SDS011;10484;48.736;9.332;2022-12-07T13:23:23;9.80;;;4.07;;
20649;SDS011;10484;48.736;9.332;2022-12-07T13:26:01;5.53;;;4.07;;
20649;SDS011;10484;48.736;9.332;2022-12-07T13:28:32;9.60;;;4.78;;
20649;SDS011;10484;48.736;9.332;2022-12-07T13:31:11;7.30;;;4.20;;
20649;SDS011;10484;48.736;9.332;2022-12-07T13:33:47;7.57;;;3.65;;
20649;SDS011;10484;48.736;9.332;2022-12-07T13:36:21;7.25;;;3.90;;
20649;SDS011;10484;48.736;9.332;2022-12-07T13:38:58;4.97;;;3.53;;
20649;SDS011;10484;48.736;9.332;2022-12-07T13:41:28;5.88;;;3.63;;
20649;SDS011;10484;48.736;9.332;2022-12-07T13:44:11;5.85;;;3.55;;
20649;SDS011;10484;48.736;9.332;2022-12-07T13:46:47;6.72;;;3.30;;
20649;SDS011;10484;48.736;9.332;2022-12-07T13:49:21;5.97;;;3.20;;
20649;SDS011;10484;48.736;9.332;2022-12-07T13:52:06;5.95;;;4.30;;
20649;SDS011;10484;48.736;9.332;2022-12-07T13:54:59;5.75;;;3.97;;
20649;SDS011;10484;48.736;9.332;2022-12-07T13:57:33;5.22;;;3.60;;
20649;SDS011;10484;48.736;9.332;2022-12-07T14:00:01;4.90;;;3.13;;
20649;SDS011;10484;48.736;9.332;2022-12-07T14:02:31;6.95;;;4.13;;
20649;SDS011;10484;48.736;9.332;2022-12-07T14:05:08;6.13;;;4.10;;
20649;SDS011;10484;48.736;9.332;2022-12-07T14:07:36;5.75;;;3.55;;
20649;SDS011;10484;48.736;9.332;2022-12-07T14:10:33;8.00;;;4.10;;
20649;SDS011;10484;48.736;9.332;2022-12-07T14:13:02;7.38;;;3.80;;
20649;SDS011;10484;48.736;9.332;2022-12-07T14:15:49;7.32;;;4.40;;
20649;SDS011;10484;48.736;9.332;2022-12-07T14:18:27;6.10;;;3.45;;
20649;SDS011;10484;48.736;9.332;2022-12-07T14:23:30;4.28;;;3.28;;
20649;SDS011;10484;48.736;9.332;2022-12-07T14:26:05;4.90;;;3.63;;
20649;SDS011;10484;48.736;9.332;2022-12-07T14:28:36;5.97;;;3.78;;
20649;SDS011;10484;48.736;9.332;2022-12-07T14:31:03;7.32;;;3.20;;
20649;SDS011;10484;48.736;9.332;2022-12-07T14:33:33;6.68;;;4.03;;
20649;SDS011;10484;48.736;9.332;2022-12-07T14:35:58;6.43;;;4.13;;
20649;SDS011;10484;48.736;9.332;2022-12-07T14:38:25;4.00;;;3.40;;
20649;SDS011;10484;48.736;9.332;2022-12-07T14:40:51;5.85;;;3.63;;
20649;SDS011;10484;48.736;9.332;2022-12-07T14:43:18;7.03;;;3.78;;
20649;SDS011;10484;48.736;9.332;2022-12-07T14:45:44;6.88;;;4.00;;
20649;SDS011;10484;48.736;9.332;2022-12-07T14:48:11;8.40;;;3.67;;
20649;SDS011;10484;48.736;9.332;2022-12-07T14:50:40;7.53;;;4.88;;
20649;SDS011;10484;48.736;9.332;2022-12-07T14:53:12;9.93;;;4.75;;
20649;SDS011;10484;48.736;9.332;2022-12-07T14:55:40;6.22;;;4.20;;
20649;SDS011;10484;48.736;9.332;2022-12-07T14:58:06;5.50;;;3.90;;
20649;SDS011;10484;48.736;9.332;2022-12-07T15:00:37;6.88;;;4.13;;
20649;SDS011;10484;48.736;9.332;2022-12-07T15:03:03;7.70;;;4.37;;
20649;SDS011;10484;48.736;9.332;2022-12-07T15:05:28;4.50;;;3.60;;
20649;SDS011;10484;48.736;9.332;2022-12-07T15:07:54;5.40;;;3.83;;
20649;SDS011;10484;48.736;9.332;2022-12-07T15:10:21;4.57;;;3.50;;
20649;SDS011;10484;48.736;9.332;2022-12-07T15:12:49;7.10;;;3.92;;
20649;SDS011;10484;48.736;9.332;2022-12-07T15:15:15;6.15;;;4.03;;
20649;SDS011;10484;48.736;9.332;2022-12-07T15:17:42;5.03;;;3.80;;
20649;SDS011;10484;48.736;9.332;2022-12-07T15:20:12;6.07;;;3.60;;
20649;SDS011;10484;48.736;9.332;2022-12-07T15:22:38;5.90;;;4.15;;
20649;SDS011;10484;48.736;9.332;2022-12-07T15:25:05;6.15;;;4.05;;
20649;SDS011;10484;48.736;9.332;2022-12-07T15:27:33;7.50;;;4.18;;
20649;SDS011;10484;48.736;9.332;2022-12-07T15:29:59;8.95;;;3.75;;
20649;SDS011;10484;48.736;9.332;2022-12-07T15:32:24;5.53;;;3.60;;
20649;SDS011;10484;48.736;9.332;2022-12-07T15:34:50;9.90;;;5.87;;
20649;SDS011;10484;48.736;9.332;2022-12-07T15:37:16;17.63;;;6.40;;
20649;SDS011;10484;48.736;9.332;2022-12-07T15:39:41;7.33;;;4.07;;
20649;SDS011;10484;48.736;9.332;2022-12-07T15:42:07;9.30;;;5.17;;
20649;SDS011;10484;48.736;9.332;2022-12-07T15:44:33;8.40;;;6.10;;
20649;SDS011;10484;48.736;9.332;2022-12-07T15:47:17;5.90;;;4.25;;
20649;SDS011;10484;48.736;9.332;2022-12-07T15:49:42;10.13;;;5.93;;
20649;SDS011;10484;48.736;9.332;2022-12-07T15:52:08;6.50;;;4.73;;
20649;SDS011;10484;48.736;9.332;2022-12-07T15:54:34;7.50;;;5.37;;
20649;SDS011;10484;48.736;9.332;2022-12-07T15:57:00;8.17;;;4.90;;
20649;SDS011;10484;48.736;9.332;2022-12-07T15:59:25;8.40;;;4.23;;
20649;SDS011;10484;48.736;9.332;2022-12-07T16:01:52;6.20;;;4.18;;
20649;SDS011;10484;48.736;9.332;2022-12-07T16:04:18;6.97;;;4.50;;
20649;SDS011;10484;48.736;9.332;2022-12-07T16:06:44;9.43;;;4.93;;
20649;SDS011;10484;48.736;9.332;2022-12-07T16:09:09;9.20;;;5.27;;
20649;SDS011;10484;48.736;9.332;2022-12-07T16:11:35;8.60;;;5.10;;
20649;SDS011;10484;48.736;9.332;2022-12-07T16:14:01;6.23;;;4.10;;
20649;SDS011;10484;48.736;9.332;2022-12-07T16:16:27;6.37;;;4.20;;
20649;SDS011;10484;48.736;9.332;2022-12-07T16:18:53;9.55;;;4.55;;
20649;SDS011;10484;48.736;9.332;2022-12-07T16:21:19;6.87;;;3.43;;
20649;SDS011;10484;48.736;9.332;2022-12-07T16:23:45;7.95;;;3.80;;
20649;SDS011;10484;48.736;9.332;2022-12-07T16:26:12;8.20;;;4.93;;
20649;SDS011;10484;48.736;9.332;2022-12-07T16:28:40;6.80;;;3.85;;
20649;SDS011;10484;48.736;9.332;2022-12-07T16:31:10;6.97;;;4.80;;
20649;SDS011;10484;48.736;9.332;2022-12-07T16:33:38;7.60;;;4.18;;
20649;SDS011;10484;48.736;9.332;2022-12-07T16:36:06;3.75;;;3.38;;
20649;SDS011;10484;48.736;9.332;2022-12-07T16:38:32;8.38;;;4.65;;
20649;SDS011;10484;48.736;9.332;2022-12-07T16:40:58;6.30;;;3.53;;
20649;SDS011;10484;48.736;9.332;2022-12-07T16:43:24;5.67;;;3.60;;
20649;SDS011;10484;48.736;9.332;2022-12-07T16:45:50;5.10;;;3.50;;
20649;SDS011;10484;48.736;9.332;2022-12-07T16:48:15;7.80;;;4.37;;
20649;SDS011;10484;48.736;9.332;2022-12-07T16:50:41;9.17;;;3.97;;